createdAt,value
2022-08-05T00:02:14.737Z,20.24
2022-08-05T00:04:55.542Z,20.24
2022-08-05T00:07:58.807Z,20.22
2022-08-05T00:09:57.749Z,20.23
2022-08-05T00:12:31.424Z,20.24
2022-08-05T00:15:54.007Z,20.23
2022-08-05T00:17:39.830Z,20.23
2022-08-05T00:20:14.487Z,20.24
2022-08-05T00:22:59.603Z,20.22
2022-08-05T00:25:23.328Z,20.20
2022-08-05T00:27:56.093Z,20.18
2022-08-05T00:30:32.039Z,20.15
2022-08-05T00:33:03.932Z,20.12
2022-08-05T00:35:37.534Z,20.11
2022-08-05T00:38:11.926Z,20.09
2022-08-05T00:40:54.387Z,20.08
2022-08-05T00:43:27.243Z,20.07
2022-08-05T00:46:02.066Z,20.08
2022-08-05T00:48:35.968Z,20.12
2022-08-05T00:51:50.235Z,20.15
2022-08-05T00:54:02.319Z,20.16
2022-08-05T00:56:20.474Z,20.18
2022-08-05T00:58:54.965Z,20.17
2022-08-05T01:01:48.246Z,20.16
2022-08-05T01:04:13.770Z,20.12
2022-08-05T01:06:40.732Z,20.07
2022-08-05T01:09:15.512Z,20.02
2022-08-05T01:11:52.516Z,20.00
2022-08-05T01:14:43.134Z,19.99
2022-08-05T01:17:32.221Z,19.95
2022-08-05T01:20:33.879Z,19.93
2022-08-05T01:23:43.004Z,19.92
2022-08-05T01:26:28.089Z,19.93
2022-08-05T01:29:23.031Z,19.87
2022-08-05T01:31:58.541Z,19.87
2022-08-05T01:34:39.884Z,19.93
2022-08-05T01:37:32.724Z,19.98
2022-08-05T01:40:08.154Z,19.98
2022-08-05T01:42:43.562Z,19.97
2022-08-05T01:45:18.136Z,20.02
2022-08-05T01:47:54.546Z,20.10
2022-08-05T01:50:38.123Z,20.16
2022-08-05T01:53:17.160Z,20.14
2022-08-05T01:55:52.864Z,20.16
2022-08-05T01:58:41.036Z,20.19
2022-08-05T02:01:04.923Z,20.19
2022-08-05T02:03:45.299Z,20.18
2022-08-05T02:06:38.431Z,20.15
2022-08-05T02:08:58.327Z,20.14
2022-08-05T02:11:33.184Z,20.13
2022-08-05T02:14:13.642Z,20.15
2022-08-05T02:16:55.715Z,20.18
2022-08-05T02:19:40.587Z,20.20
2022-08-05T02:22:26.618Z,20.20
2022-08-05T02:25:06.589Z,20.21
2022-08-05T02:27:58.927Z,20.17
2022-08-05T02:30:17.037Z,20.12
2022-08-05T02:32:52.855Z,20.09
2022-08-05T02:35:37.454Z,20.05
2022-08-05T02:38:03.215Z,20.00
2022-08-05T02:40:36.612Z,19.97
2022-08-05T02:43:09.547Z,19.94
2022-08-05T02:45:52.519Z,19.90
2022-08-05T02:48:19.764Z,19.84
2022-08-05T02:50:54.939Z,19.81
2022-08-05T02:53:28.557Z,19.75
2022-08-05T02:56:02.904Z,19.74
2022-08-05T02:58:43.748Z,19.70
2022-08-05T03:01:27.318Z,19.67
2022-08-05T03:04:14.048Z,19.68
2022-08-05T03:06:54.482Z,19.67
2022-08-05T03:09:17.843Z,19.69
2022-08-05T03:11:55.421Z,19.75
2022-08-05T03:14:26.335Z,19.80
2022-08-05T03:16:59.287Z,19.82
2022-08-05T03:19:34.513Z,19.85
2022-08-05T03:22:16.760Z,19.84
2022-08-05T03:24:42.495Z,19.85
2022-08-05T03:27:17.281Z,19.89
2022-08-05T03:30:08.049Z,19.89
2022-08-05T03:32:30.924Z,19.95
2022-08-05T03:34:59.896Z,19.99
2022-08-05T03:37:41.754Z,20.11
2022-08-05T03:40:11.989Z,20.21
2022-08-05T03:42:52.450Z,20.28
2022-08-05T03:45:21.386Z,20.34
2022-08-05T03:47:56.856Z,20.51
2022-08-05T03:50:35.870Z,20.68
2022-08-05T03:55:51.843Z,20.86
2022-08-05T03:56:10.395Z,21.02
2022-08-05T03:58:38.108Z,21.21
2022-08-05T04:01:13.448Z,21.41
2022-08-05T04:04:10.190Z,21.67
2022-08-05T04:06:22.518Z,21.90
2022-08-05T04:08:57.462Z,22.19
2022-08-05T04:11:47.387Z,22.19
2022-08-05T04:14:07.424Z,22.31
2022-08-05T04:16:40.727Z,22.45
2022-08-05T04:19:14.859Z,22.50
2022-08-05T04:22:10.163Z,22.53
2022-08-05T04:24:23.671Z,22.48
2022-08-05T04:26:58.331Z,22.43
2022-08-05T04:29:32.239Z,22.43
2022-08-05T04:32:05.838Z,22.43
2022-08-05T04:34:42.898Z,22.45
2022-08-05T04:37:14.850Z,22.46
2022-08-05T04:39:52.946Z,22.49
2022-08-05T04:42:25.428Z,22.49
2022-08-05T04:44:58.483Z,22.55
2022-08-05T04:47:38.620Z,22.62
2022-08-05T04:50:11.614Z,22.68
2022-08-05T04:52:42.341Z,22.83
2022-08-05T04:55:17.189Z,22.83
2022-08-05T04:57:54.261Z,22.90
2022-08-05T05:00:26.177Z,22.95
2022-08-05T05:03:03.670Z,23.00
2022-08-05T05:05:34.935Z,23.05
2022-08-05T05:08:14.436Z,23.11
2022-08-05T05:10:56.303Z,23.18
2022-08-05T05:13:22.703Z,23.34
2022-08-05T05:15:59.523Z,23.34
2022-08-05T05:18:33.731Z,23.43
2022-08-05T05:21:05.641Z,23.46
2022-08-05T05:24:03.721Z,23.52
2022-08-05T05:26:13.468Z,23.57
2022-08-05T05:28:49.380Z,23.68
2022-08-05T05:31:22.391Z,23.73
2022-08-05T05:33:59.663Z,23.73
2022-08-05T05:36:32.480Z,23.80
2022-08-05T05:39:10.956Z,23.88
2022-08-05T05:41:41.936Z,23.88
2022-08-05T05:44:36.897Z,23.95
2022-08-05T05:46:49.611Z,24.00
2022-08-05T05:49:24.096Z,24.10
2022-08-05T05:51:57.588Z,24.10
2022-08-05T05:54:49.723Z,24.13
2022-08-05T05:57:05.271Z,24.17
2022-08-05T05:59:40.202Z,24.19
2022-08-05T06:02:13.410Z,24.22
2022-08-05T06:04:49.177Z,24.27
2022-08-05T06:07:22.391Z,24.31
2022-08-05T06:10:04.322Z,24.37
2022-08-05T06:12:30.309Z,24.41
2022-08-05T06:15:04.554Z,24.44
2022-08-05T06:17:52.959Z,24.48
2022-08-05T06:20:21.362Z,24.50
2022-08-05T06:22:49.227Z,24.53
2022-08-05T06:25:24.598Z,24.59
2022-08-05T06:28:12.353Z,24.66
2022-08-05T06:30:32.385Z,24.71
2022-08-05T06:33:10.051Z,24.75
2022-08-05T06:36:04.164Z,24.80
2022-08-05T06:38:16.133Z,24.85
2022-08-05T06:40:49.461Z,24.89
2022-08-05T06:43:58.875Z,24.95
2022-08-05T06:46:04.106Z,25.01
2022-08-05T06:48:53.641Z,25.07
2022-08-05T06:51:09.365Z,25.15
2022-08-05T06:53:41.494Z,25.21
2022-08-05T06:56:25.905Z,25.28
2022-08-05T06:58:51.168Z,25.33
2022-08-05T07:01:27.688Z,25.37
2022-08-05T07:03:58.643Z,25.41
2022-08-05T07:06:32.844Z,25.45
2022-08-05T07:09:05.956Z,25.49
2022-08-05T07:11:39.780Z,25.54
2022-08-05T07:14:30.715Z,25.58
2022-08-05T07:17:58.903Z,25.63
2022-08-05T07:20:16.857Z,25.71
2022-08-05T07:22:15.761Z,25.76
2022-08-05T07:24:52.730Z,25.83
2022-08-05T07:27:22.672Z,25.91
2022-08-05T07:30:23.888Z,25.97
2022-08-05T07:32:40.297Z,26.02
2022-08-05T07:36:02.310Z,26.07
2022-08-05T07:37:51.245Z,26.09
2022-08-05T07:40:32.288Z,26.10
2022-08-05T07:43:04.757Z,26.11
2022-08-05T07:45:56.628Z,26.16
2022-08-05T07:48:10.068Z,26.21
2022-08-05T07:50:43.206Z,26.28
2022-08-05T07:53:17.799Z,26.36
2022-08-05T07:56:06.166Z,26.44
2022-08-05T07:58:57.649Z,26.50
2022-08-05T08:01:01.989Z,26.54
2022-08-05T08:03:44.401Z,26.56
2022-08-05T08:06:11.687Z,26.57
2022-08-05T08:08:44.551Z,26.62
2022-08-05T08:11:17.921Z,26.64
2022-08-05T08:14:00.599Z,26.68
2022-08-05T08:16:34.928Z,26.72
2022-08-05T08:19:02.994Z,26.75
2022-08-05T08:21:36.650Z,26.78
2022-08-05T08:24:14.142Z,26.82
2022-08-05T08:26:46.035Z,26.89
2022-08-05T08:30:03.367Z,26.95
2022-08-05T08:31:54.211Z,26.98
2022-08-05T08:34:30.569Z,27.01
2022-08-05T08:37:05.114Z,27.12
2022-08-05T08:39:38.242Z,27.24
2022-08-05T08:42:34.229Z,27.33
2022-08-05T08:45:23.123Z,27.39
2022-08-05T08:48:06.846Z,27.48
2022-08-05T08:50:06.142Z,27.57
2022-08-05T08:52:38.354Z,27.64
2022-08-05T08:55:13.128Z,27.70
2022-08-05T08:57:58.394Z,27.73
2022-08-05T09:00:23.813Z,27.75
2022-08-05T09:02:59.480Z,27.76
2022-08-05T09:05:38.847Z,27.82
2022-08-05T09:08:09.698Z,27.91
2022-08-05T09:10:46.765Z,28.00
2022-08-05T09:13:20.342Z,28.02
2022-08-05T09:15:55.322Z,28.00
2022-08-05T09:18:28.280Z,27.96
2022-08-05T09:21:03.214Z,27.91
2022-08-05T09:23:43.588Z,27.88
2022-08-05T09:26:20.555Z,27.87
2022-08-05T09:28:57.368Z,27.90
2022-08-05T09:32:40.300Z,27.98
2022-08-05T09:34:10.403Z,28.06
2022-08-05T09:36:56.412Z,28.12
2022-08-05T09:39:41.470Z,28.17
2022-08-05T09:42:04.931Z,28.17
2022-08-05T09:44:42.665Z,28.09
2022-08-05T09:47:21.944Z,27.99
2022-08-05T09:50:01.123Z,27.88
2022-08-05T09:52:45.122Z,27.75
2022-08-05T09:55:58.643Z,27.62
2022-08-05T09:57:48.565Z,27.48
2022-08-05T10:00:25.224Z,27.35
2022-08-05T10:02:59.170Z,27.25
2022-08-05T10:05:32.875Z,27.17
2022-08-05T10:08:35.537Z,27.07
2022-08-05T10:10:53.851Z,26.97
2022-08-05T10:13:45.515Z,26.88
2022-08-05T10:16:33.838Z,26.78
2022-08-05T10:19:09.509Z,26.66
2022-08-05T10:21:41.505Z,26.54
2022-08-05T10:24:15.253Z,26.45
2022-08-05T10:26:52.884Z,26.35
2022-08-05T10:30:06.387Z,26.27
2022-08-05T10:32:52.053Z,26.18
2022-08-05T10:34:36.680Z,26.11
2022-08-05T10:37:13.365Z,26.04
2022-08-05T10:39:59.274Z,25.97
2022-08-05T10:42:33.771Z,25.91
2022-08-05T10:45:00.615Z,25.85
2022-08-05T10:47:37.660Z,25.76
2022-08-05T10:50:32.108Z,25.72
2022-08-05T10:52:55.029Z,25.67
2022-08-05T10:55:38.556Z,25.60
2022-08-05T10:58:12.033Z,25.54
2022-08-05T11:00:55.311Z,25.49
2022-08-05T11:03:27.076Z,25.45
2022-08-05T11:06:15.007Z,25.41
2022-08-05T11:09:31.930Z,25.38
2022-08-05T11:11:58.375Z,25.34
2022-08-05T11:15:00.981Z,25.30
2022-08-05T11:18:07.687Z,25.27
2022-08-05T11:20:18.410Z,25.26
2022-08-05T11:22:53.952Z,25.25
2022-08-05T11:26:05.070Z,25.25
2022-08-05T11:28:18.058Z,25.25
2022-08-05T11:31:05.866Z,25.24
2022-08-05T11:33:48.958Z,25.24
2022-08-05T11:36:34.654Z,25.22
2022-08-05T11:39:00.198Z,25.23
2022-08-05T11:42:00.649Z,25.23
2022-08-05T11:44:40.373Z,25.23
2022-08-05T11:47:09.970Z,25.23
2022-08-05T11:49:28.126Z,25.22
2022-08-05T11:52:08.429Z,25.21
2022-08-05T11:54:38.382Z,25.21
2022-08-05T11:57:24.910Z,25.21
2022-08-05T11:59:50.398Z,25.21
2022-08-05T12:02:31.603Z,25.23
2022-08-05T12:05:06.850Z,25.22
2022-08-05T12:08:03.360Z,25.20
2022-08-05T12:10:15.326Z,25.16
2022-08-05T12:12:59.942Z,25.10
2022-08-05T12:15:35.920Z,25.06
2022-08-05T12:18:09.928Z,25.02
2022-08-05T12:20:35.111Z,24.99
2022-08-05T12:23:14.305Z,24.99
2022-08-05T12:25:56.446Z,24.98
2022-08-05T12:28:39.955Z,24.96
2022-08-05T12:31:12.880Z,24.92
2022-08-05T12:33:48.426Z,24.90
2022-08-05T12:36:21.757Z,24.87
2022-08-05T12:38:57.655Z,24.85
2022-08-05T12:41:36.245Z,24.83
2022-08-05T12:44:14.213Z,24.80
2022-08-05T12:46:54.057Z,24.78
2022-08-05T12:49:27.155Z,24.76
2022-08-05T12:52:13.649Z,24.77
2022-08-05T12:54:38.239Z,24.76
2022-08-05T12:57:13.243Z,24.73
2022-08-05T13:01:57.369Z,24.72
2022-08-05T13:02:31.519Z,24.70
2022-08-05T13:05:08.142Z,24.67
2022-08-05T13:08:01.144Z,24.65
2022-08-05T13:10:20.459Z,24.60
2022-08-05T13:12:58.044Z,24.56
2022-08-05T13:15:41.574Z,24.53
2022-08-05T13:18:08.545Z,24.51
2022-08-05T13:20:41.470Z,24.46
2022-08-05T13:23:18.113Z,24.35
2022-08-05T13:25:59.228Z,24.27
2022-08-05T13:28:26.433Z,24.14
2022-08-05T13:30:59.388Z,23.96
2022-08-05T13:34:21.105Z,23.84
2022-08-05T13:36:09.331Z,23.76
2022-08-05T13:38:43.317Z,23.67
2022-08-05T13:41:16.799Z,23.63
2022-08-05T13:43:54.754Z,23.57
2022-08-05T13:46:43.836Z,23.50
2022-08-05T13:49:01.057Z,23.45
2022-08-05T13:51:40.090Z,23.41
2022-08-05T13:54:12.710Z,23.37
2022-08-05T13:56:50.876Z,23.34
2022-08-05T13:59:27.226Z,23.33
2022-08-05T14:02:01.000Z,23.33
2022-08-05T14:05:00.507Z,23.33
2022-08-05T14:07:59.964Z,23.28
2022-08-05T14:10:28.124Z,23.28
2022-08-05T14:13:01.724Z,23.21
2022-08-05T14:16:07.547Z,23.10
2022-08-05T14:18:15.063Z,23.10
2022-08-05T14:20:46.834Z,23.12
2022-08-05T14:23:25.803Z,23.11
2022-08-05T14:25:58.566Z,23.07
2022-08-05T14:28:32.340Z,23.10
2022-08-05T14:31:05.244Z,23.14
2022-08-05T14:34:00.027Z,23.19
2022-08-05T14:36:15.453Z,23.19
2022-08-05T14:38:48.304Z,23.21
2022-08-05T14:41:21.210Z,23.20
2022-08-05T14:44:02.194Z,23.18
2022-08-05T14:46:31.680Z,23.23
2022-08-05T14:49:08.054Z,23.28
2022-08-05T14:51:43.234Z,23.36
2022-08-05T14:54:29.989Z,23.38
2022-08-05T14:56:54.823Z,23.38
2022-08-05T14:59:29.539Z,23.33
2022-08-05T15:02:01.717Z,23.30
2022-08-05T15:04:36.487Z,23.31
2022-08-05T15:07:10.945Z,23.29
2022-08-05T15:09:51.658Z,23.34
2022-08-05T15:12:21.163Z,23.41
2022-08-05T15:14:56.140Z,23.44
2022-08-05T15:17:46.685Z,23.47
2022-08-05T15:20:03.700Z,23.54
2022-08-05T15:22:36.950Z,23.60
2022-08-05T15:25:14.153Z,23.63
2022-08-05T15:27:52.326Z,23.66
2022-08-05T15:30:20.730Z,23.70
2022-08-05T15:32:56.850Z,23.73
2022-08-05T15:35:36.175Z,23.83
2022-08-05T15:38:33.519Z,23.91
2022-08-05T15:41:00.919Z,24.01
2022-08-05T15:43:20.341Z,24.04
2022-08-05T15:45:59.804Z,24.04
2022-08-05T15:48:23.817Z,24.04
2022-08-05T15:50:57.059Z,24.10
2022-08-05T15:53:38.383Z,24.13
2022-08-05T15:56:11.579Z,24.14
2022-08-05T15:58:41.023Z,24.18
2022-08-05T16:01:17.860Z,24.23
2022-08-05T16:03:51.044Z,24.27
2022-08-05T16:06:24.759Z,24.32
2022-08-05T16:08:58.018Z,24.32
2022-08-05T16:11:43.036Z,24.33
2022-08-05T16:14:06.648Z,24.33
2022-08-05T16:16:39.617Z,24.31
2022-08-05T16:19:18.812Z,24.29
2022-08-05T16:22:01.087Z,24.25
2022-08-05T16:24:40.153Z,24.19
2022-08-05T16:27:02.352Z,24.15
2022-08-05T16:29:37.478Z,24.10
2022-08-05T16:32:10.671Z,24.05
2022-08-05T16:34:43.595Z,24.01
2022-08-05T16:38:02.655Z,23.97
2022-08-05T16:40:05.155Z,23.95
2022-08-05T16:42:27.522Z,23.91
2022-08-05T16:45:00.194Z,23.87
2022-08-05T16:47:36.329Z,23.81
2022-08-05T16:50:10.511Z,23.75
2022-08-05T16:52:45.944Z,23.71
2022-08-05T16:55:19.777Z,23.69
2022-08-05T16:58:01.677Z,23.67
2022-08-05T17:00:34.084Z,23.64
2022-08-05T17:03:03.778Z,23.62
2022-08-05T17:05:38.178Z,23.57
2022-08-05T17:08:11.479Z,23.52
2022-08-05T17:10:46.290Z,23.48
2022-08-05T17:13:21.608Z,23.47
2022-08-05T17:16:02.797Z,23.44
2022-08-05T17:18:29.985Z,23.40
2022-08-05T17:21:02.815Z,23.37
2022-08-05T17:24:03.122Z,23.30
2022-08-05T17:26:12.164Z,23.26
2022-08-05T17:28:47.270Z,23.22
2022-08-05T17:31:24.801Z,23.22
2022-08-05T17:33:57.736Z,23.23
2022-08-05T17:36:32.440Z,23.19
2022-08-05T17:39:05.728Z,23.15
2022-08-05T17:42:18.393Z,23.06
2022-08-05T17:44:16.477Z,23.04
2022-08-05T17:46:49.334Z,23.02
2022-08-05T17:49:23.800Z,22.99
2022-08-05T17:51:57.397Z,22.97
2022-08-05T17:54:31.813Z,22.89
2022-08-05T17:57:05.720Z,22.86
2022-08-05T17:59:40.319Z,22.86
2022-08-05T18:02:13.401Z,22.90
2022-08-05T18:04:51.183Z,22.91
2022-08-05T18:07:22.479Z,22.92
2022-08-05T18:09:59.663Z,22.94
2022-08-05T18:12:31.875Z,22.96
2022-08-05T18:15:08.857Z,22.97
2022-08-05T18:18:00.830Z,22.99
2022-08-05T18:20:16.517Z,22.99
2022-08-05T18:22:54.560Z,23.00
2022-08-05T18:25:25.039Z,23.03
2022-08-05T18:27:58.097Z,23.03
2022-08-05T18:30:30.879Z,23.03
2022-08-05T18:33:04.860Z,23.03
2022-08-05T18:35:59.738Z,23.01
2022-08-05T18:38:12.950Z,22.98
2022-08-05T18:41:56.551Z,22.95
2022-08-05T18:43:23.163Z,22.94
2022-08-05T18:45:55.261Z,22.94
2022-08-05T18:48:32.957Z,22.93
2022-08-05T18:52:05.827Z,22.89
2022-08-05T18:53:57.662Z,22.86
2022-08-05T18:56:30.485Z,22.81
2022-08-05T18:59:41.900Z,22.80
2022-08-05T19:01:47.435Z,22.78
2022-08-05T19:04:14.200Z,22.76
2022-08-05T19:06:50.033Z,22.74
2022-08-05T19:09:22.971Z,22.74
2022-08-05T19:12:00.494Z,22.76
2022-08-05T19:14:53.551Z,22.77
2022-08-05T19:17:09.290Z,22.79
2022-08-05T19:19:46.896Z,22.80
2022-08-05T19:22:19.238Z,22.80
2022-08-05T19:24:56.717Z,22.80
2022-08-05T19:27:30.795Z,22.78
2022-08-05T19:30:05.446Z,22.75
2022-08-05T19:32:39.636Z,22.74
2022-08-05T19:35:13.289Z,22.73
2022-08-05T19:38:05.974Z,22.71
2022-08-05T19:40:24.285Z,22.71
2022-08-05T19:43:04.510Z,22.70
2022-08-05T19:45:33.285Z,22.68
2022-08-05T19:48:07.479Z,22.64
2022-08-05T19:50:41.990Z,22.62
2022-08-05T19:53:14.770Z,22.59
2022-08-05T19:56:14.452Z,22.57
2022-08-05T19:58:29.272Z,22.58
2022-08-05T20:00:57.765Z,22.57
2022-08-05T20:03:37.965Z,22.55
2022-08-05T20:06:11.692Z,22.54
2022-08-05T20:08:40.960Z,22.51
2022-08-05T20:11:18.103Z,22.45
2022-08-05T20:13:58.940Z,22.42
2022-08-05T20:16:25.017Z,22.35
2022-08-05T20:18:58.049Z,22.33
2022-08-05T20:21:32.613Z,22.32
2022-08-05T20:24:06.397Z,22.31
2022-08-05T20:26:39.508Z,22.29
2022-08-05T20:29:27.644Z,22.28
2022-08-05T20:31:53.464Z,22.27
2022-08-05T20:34:23.041Z,22.23
2022-08-05T20:36:56.233Z,22.19
2022-08-05T20:39:35.757Z,22.17
2022-08-05T20:42:03.452Z,22.17
2022-08-05T20:44:38.207Z,22.16
2022-08-05T20:47:11.023Z,22.14
2022-08-05T20:49:43.882Z,22.12
2022-08-05T20:52:17.772Z,22.10
2022-08-05T20:55:55.377Z,22.11
2022-08-05T20:57:42.641Z,22.08
2022-08-05T21:00:19.519Z,22.07
2022-08-05T21:02:39.486Z,22.07
2022-08-05T21:05:09.719Z,22.05
2022-08-05T21:07:50.711Z,22.07
2022-08-05T21:10:17.655Z,22.07
2022-08-05T21:12:57.993Z,22.04
2022-08-05T21:15:25.327Z,22.03
2022-08-05T21:17:59.823Z,22.03
2022-08-05T21:20:34.205Z,22.03
2022-08-05T21:23:07.748Z,22.01
2022-08-05T21:25:42.237Z,22.00
2022-08-05T21:28:18.733Z,22.01
2022-08-05T21:30:49.464Z,22.00
2022-08-05T21:33:23.568Z,21.99
2022-08-05T21:35:58.740Z,22.01
2022-08-05T21:38:30.539Z,21.96
2022-08-05T21:41:03.586Z,21.92
2022-08-05T21:43:41.743Z,21.91
2022-08-05T21:46:12.169Z,21.90
2022-08-05T21:48:45.179Z,21.89
2022-08-05T21:52:16.457Z,21.89
2022-08-05T21:53:59.542Z,21.85
2022-08-05T21:56:26.813Z,21.83
2022-08-05T21:58:59.551Z,21.80
2022-08-05T22:01:35.499Z,21.77
2022-08-05T22:04:13.368Z,21.75
2022-08-05T22:06:50.551Z,21.76
2022-08-05T22:09:21.037Z,21.75
2022-08-05T22:11:53.197Z,21.77
2022-08-05T22:14:35.011Z,21.80
2022-08-05T22:17:04.896Z,21.80
2022-08-05T22:20:02.998Z,21.79
2022-08-05T22:22:12.901Z,21.78
2022-08-05T22:25:05.783Z,21.79
2022-08-05T22:28:08.742Z,21.80
2022-08-05T22:30:22.284Z,21.82
2022-08-05T22:32:55.140Z,21.84
2022-08-05T22:35:31.061Z,21.85
2022-08-05T22:38:03.135Z,21.82
2022-08-05T22:40:37.047Z,21.79
2022-08-05T22:43:10.227Z,21.76
2022-08-05T22:45:44.512Z,21.73
2022-08-05T22:48:21.980Z,21.72
2022-08-05T22:50:56.286Z,21.72
2022-08-05T22:53:26.997Z,21.71
2022-08-05T22:56:01.425Z,21.72
2022-08-05T22:58:34.497Z,21.72
2022-08-05T23:01:09.027Z,21.74
2022-08-05T23:03:58.757Z,21.77
2022-08-05T23:06:17.058Z,21.80
2022-08-05T23:08:52.303Z,21.80
2022-08-05T23:11:25.221Z,21.81
2022-08-05T23:13:58.378Z,21.83
2022-08-05T23:16:49.463Z,21.82
2022-08-05T23:19:26.117Z,21.81
2022-08-05T23:21:58.193Z,21.79
2022-08-05T23:24:31.744Z,21.77
2022-08-05T23:27:04.958Z,21.74
2022-08-05T23:29:37.842Z,21.72
2022-08-05T23:32:11.037Z,21.71
2022-08-05T23:34:43.998Z,21.66
2022-08-05T23:37:16.591Z,21.63
2022-08-05T23:39:54.192Z,21.63
2022-08-05T23:42:29.301Z,21.65
2022-08-05T23:44:59.387Z,21.67
2022-08-05T23:47:33.534Z,21.68
2022-08-05T23:50:09.501Z,21.69
2022-08-05T23:52:49.511Z,21.68
2022-08-05T23:55:16.769Z,21.66
2022-08-05T23:57:51.204Z,21.65
